Shinkai Maru — JJ4012 — position and weather

sailwx.info

Track history (hours):
 
Tides and Currents Weather Stations Pressure Air Temp Water Temp Dewpoint Dewpoint Depression Visibility Wind Speed Wind Dir Waves Ship Positions

Shinkai Maru

Last reported at 2016-Sep-25 17:33 UTC. Time now 2016-Sep-28 18:54 UTC.
Position N 34°32' E 135°02'.

Length 76 m; draft 4.1 m.

Type: Cargo ship. MMSI: 431301346.

Date/timePositionNaut miles runAvg speedWind from/ knotsBaromVisibWave heightAir tempDewpointWater temp
2016-Sep-25 17:33N 34°32' E 135°02'9 8.9
2016-Sep-25 16:31N 34°37' E 134°53'10 0.5
2016-Sep-24 19:33N 34°33' E 135°04'2412.1
2016-Sep-24 17:34N 34°09' E 135°01'27 0.7
2016-Sep-23 04:32N 34°36' E 135°02'31 1.3
2016-Sep-22 04:33N 34°05' E 135°01'25410.2
2016-Sep-21 03:33N 35°31' E 139°52'7 5.4
2016-Sep-21 02:20N 35°37' E 139°57'0 0.0
2016-Sep-20 17:33N 35°37' E 139°56'0 0.0
2016-Sep-20 14:33N 35°37' E 139°56'0 0.0
2016-Sep-20 13:33N 35°37' E 139°56'0 0.0
2016-Sep-20 10:28N 35°37' E 139°56'0 0.0
2016-Sep-20 08:28N 35°37' E 139°56'0 0.0
2016-Sep-20 07:28N 35°37' E 139°56'4 4.7
2016-Sep-20 06:33N 35°41' E 139°57'0 0.0
2016-Sep-20 02:24N 35°41' E 139°58'0 0.0
2016-Sep-19 23:30N 35°41' E 139°58'0 0.0
2016-Sep-19 19:30N 35°41' E 139°58'0 0.0
2016-Sep-19 18:30N 35°41' E 139°58'0 0.0
2016-Sep-19 16:30N 35°41' E 139°58'0 0.0
2016-Sep-19 14:18N 35°41' E 139°58'0 0.0
2016-Sep-19 13:30N 35°41' E 139°58'0 0.0
2016-Sep-19 12:33N 35°41' E 139°58'0 0.0
2016-Sep-19 11:27N 35°41' E 139°58'0 0.0
2016-Sep-19 09:33N 35°41' E 139°58'0 0.0
2016-Sep-19 07:06N 35°41' E 139°58'4 1.0
2016-Sep-19 03:33N 35°37' E 139°58'1211.7
2016-Sep-19 02:33N 35°28' E 139°50'2110.4
2016-Sep-19 00:33N 35°07' E 139°46'240 9.1
2016-Sep-17 22:13N 34°21' E 134°59'710.6
2016-Sep-17 21:33N 34°28' E 135°01'9 9.1
2016-Sep-17 20:33N 34°37' E 135°01'  
Track history (hours):
 
Tides and Currents Weather Stations Pressure Air Temp Water Temp Dewpoint Dewpoint Depression Visibility Wind Speed Wind Dir Waves Ship Positions

Shinkai Maru

Last reported at 2016-Sep-25 17:33 UTC. Time now 2016-Sep-28 18:54 UTC.
Position N 34°32' E 135°02'.

Length 76 m; draft 4.1 m.

Type: Cargo ship. MMSI: 431301346.

Date/timePositionNaut miles runAvg speedWind from/ knotsBaromVisibWave heightAir tempDewpointWater temp
2016-Sep-25 17:33N 34°32' E 135°02'9 8.9
2016-Sep-25 16:31N 34°37' E 134°53'10 0.5
2016-Sep-24 19:33N 34°33' E 135°04'2412.1
2016-Sep-24 17:34N 34°09' E 135°01'27 0.7
2016-Sep-23 04:32N 34°36' E 135°02'31 1.3
2016-Sep-22 04:33N 34°05' E 135°01'25410.2
2016-Sep-21 03:33N 35°31' E 139°52'7 5.4
2016-Sep-21 02:20N 35°37' E 139°57'0 0.0
2016-Sep-20 17:33N 35°37' E 139°56'0 0.0
2016-Sep-20 14:33N 35°37' E 139°56'0 0.0
2016-Sep-20 13:33N 35°37' E 139°56'0 0.0
2016-Sep-20 10:28N 35°37' E 139°56'0 0.0
2016-Sep-20 08:28N 35°37' E 139°56'0 0.0
2016-Sep-20 07:28N 35°37' E 139°56'4 4.7
2016-Sep-20 06:33N 35°41' E 139°57'0 0.0
2016-Sep-20 02:24N 35°41' E 139°58'0 0.0
2016-Sep-19 23:30N 35°41' E 139°58'0 0.0
2016-Sep-19 19:30N 35°41' E 139°58'0 0.0
2016-Sep-19 18:30N 35°41' E 139°58'0 0.0
2016-Sep-19 16:30N 35°41' E 139°58'0 0.0
2016-Sep-19 14:18N 35°41' E 139°58'0 0.0
2016-Sep-19 13:30N 35°41' E 139°58'0 0.0
2016-Sep-19 12:33N 35°41' E 139°58'0 0.0
2016-Sep-19 11:27N 35°41' E 139°58'0 0.0
2016-Sep-19 09:33N 35°41' E 139°58'0 0.0
2016-Sep-19 07:06N 35°41' E 139°58'4 1.0
2016-Sep-19 03:33N 35°37' E 139°58'1211.7
2016-Sep-19 02:33N 35°28' E 139°50'2110.4
2016-Sep-19 00:33N 35°07' E 139°46'240 9.1
2016-Sep-17 22:13N 34°21' E 134°59'710.6
2016-Sep-17 21:33N 34°28' E 135°01'9 9.1
2016-Sep-17 20:33N 34°37' E 135°01'  

Dump ship's entire track history